This is the latest recevied weather packets stored in our database for station/object KA7KDX-4. If no packets are shown the sender has not sent any weather packets the latest 10 day(s).
| Time | Temp. | Humidity | Pressure | Rain* | Wind** | Luminosity | Snow |
|---|---|---|---|---|---|---|---|
| 1777928406 | 18.89° C | 31% | 1002.2 hPa | 0 mm | - | - | - |
| 1777928106 | 18.89° C | 32% | 1002.1 hPa | 0 mm | - | - | - |
| 1777927806 | 18.89° C | 34% | 1002.1 hPa | 0 mm | - | - | - |
| 1777927506 | 18.89° C | 34% | 1002.3 hPa | 0 mm | - | - | - |
| 1777927206 | 18.33° C | 35% | 1002.4 hPa | 0 mm | - | - | - |
| 1777926905 | 18.33° C | 36% | 1002.5 hPa | 0 mm | - | - | - |
| 1777926605 | 18.33° C | 38% | 1002.7 hPa | 0 mm | - | - | - |
| 1777926305 | 18.33° C | 37% | 1002.8 hPa | 0 mm | - | - | - |
| 1777926005 | 17.78° C | 41% | 1002.8 hPa | 0 mm | - | - | - |
| 1777925706 | 18.33° C | 42% | 1002.7 hPa | 0 mm | - | - | - |
| 1777925406 | 18.89° C | 40% | 1002.2 hPa | 0 mm | - | - | - |
| 1777925106 | 19.44° C | 35% | 1002.1 hPa | 0 mm | - | - | - |
| 1777924805 | 19.44° C | 36% | 1001.9 hPa | 0 mm | - | - | - |
| 1777924505 | 19.44° C | 37% | 1002 hPa | 0 mm | - | - | - |
| 1777924205 | 19.44° C | 35% | 1001.8 hPa | 0 mm | - | - | - |
| 1777923905 | 20° C | 34% | 1001.5 hPa | 0 mm | - | - | - |
| 1777923605 | 20° C | 31% | 1001.2 hPa | 0 mm | - | - | - |
| 1777923305 | 20° C | 30% | 1000.9 hPa | 0 mm | - | - | - |
| 1777923006 | 20° C | 30% | 1001.3 hPa | 0 mm | - | - | - |
| 1777922706 | 20° C | 31% | 1001.1 hPa | 0 mm | - | - | - |
| 1777922406 | 20° C | 31% | 1000.8 hPa | 0 mm | - | - | - |
| 1777922105 | 20.56° C | 31% | 1001 hPa | 0 mm | - | - | - |
| 1777921806 | 20.56° C | 31% | 1000.9 hPa | 0 mm | - | - | - |
| 1777921505 | 21.11° C | 31% | 1000.8 hPa | 0 mm | - | - | - |
| 1777921205 | 21.11° C | 30% | 1000.6 hPa | 0 mm | - | - | - |
* Rain latest hour (hover to see other rain measurements)
** Current wind speed in m/s (hover to see current wind gust speed)